createdAt,value
2022-12-08T00:01:21.746Z,10.63
2022-12-08T00:03:48.875Z,10.63
2022-12-08T00:06:47.058Z,10.13
2022-12-08T00:09:29.126Z,10.47
2022-12-08T00:11:59.834Z,11.27
2022-12-08T00:14:35.894Z,10.90
2022-12-08T00:17:04.418Z,10.87
2022-12-08T00:19:33.111Z,10.03
2022-12-08T00:22:00.034Z,10.40
2022-12-08T00:24:33.418Z,10.93
2022-12-08T00:27:00.384Z,10.50
2022-12-08T00:29:27.571Z,10.90
2022-12-08T00:31:54.461Z,10.43
2022-12-08T00:34:21.391Z,10.57
2022-12-08T00:36:48.945Z,11.30
2022-12-08T00:39:17.889Z,11.83
2022-12-08T00:42:03.584Z,10.50
2022-12-08T00:44:30.334Z,11.30
2022-12-08T00:46:57.304Z,10.60
2022-12-08T00:49:24.049Z,10.90
2022-12-08T00:51:50.904Z,11.40
2022-12-08T00:54:19.047Z,11.63
2022-12-08T00:56:46.545Z,11.60
2022-12-08T00:59:14.418Z,12.10
2022-12-08T01:01:41.606Z,10.43
2022-12-08T01:04:11.910Z,11.00
2022-12-08T01:06:39.418Z,10.90
2022-12-08T01:09:07.774Z,10.90
2022-12-08T01:11:36.152Z,11.73
2022-12-08T01:14:04.117Z,11.37
2022-12-08T01:16:34.294Z,11.03
2022-12-08T01:19:01.775Z,10.33
2022-12-08T01:21:29.308Z,19.23
2022-12-08T01:23:56.278Z,27.27
2022-12-08T01:26:23.025Z,15.50
2022-12-08T01:28:49.795Z,11.40
2022-12-08T01:31:21.370Z,10.63
2022-12-08T01:33:49.252Z,10.97
2022-12-08T01:36:25.177Z,11.77
2022-12-08T01:38:52.942Z,12.20
2022-12-08T01:41:22.758Z,11.23
2022-12-08T01:44:24.819Z,11.23
2022-12-08T01:46:53.684Z,12.10
2022-12-08T01:49:31.125Z,11.43
2022-12-08T01:52:25.790Z,11.30
2022-12-08T01:55:06.473Z,13.87
2022-12-08T01:57:55.872Z,11.67
2022-12-08T02:00:23.408Z,11.53
2022-12-08T02:02:56.588Z,11.40
2022-12-08T02:05:30.733Z,11.20
2022-12-08T02:07:58.762Z,10.93
2022-12-08T02:10:29.492Z,12.10
2022-12-08T02:12:58.357Z,12.00
2022-12-08T02:15:37.012Z,11.70
2022-12-08T02:18:28.184Z,12.07
2022-12-08T02:20:57.745Z,11.60
2022-12-08T02:23:33.901Z,11.07
2022-12-08T02:26:19.832Z,10.70
2022-12-08T02:29:08.231Z,12.00
2022-12-08T02:31:55.673Z,10.97
2022-12-08T02:34:40.320Z,10.33
2022-12-08T02:37:21.119Z,9.93
2022-12-08T02:40:07.249Z,10.33
2022-12-08T02:43:04.791Z,10.93
2022-12-08T02:46:02.456Z,9.70
2022-12-08T02:48:29.875Z,10.40
2022-12-08T02:50:56.618Z,10.67
2022-12-08T02:53:23.445Z,9.70
2022-12-08T02:56:01.618Z,11.50
2022-12-08T02:58:53.235Z,9.73
2022-12-08T03:02:05.900Z,10.37
2022-12-08T03:04:55.574Z,12.77
2022-12-08T03:07:40.358Z,9.80
2022-12-08T03:10:13.581Z,10.17
2022-12-08T03:12:58.349Z,9.80
2022-12-08T03:15:25.134Z,9.70
2022-12-08T03:17:56.933Z,10.07
2022-12-08T03:20:25.981Z,11.10
2022-12-08T03:22:55.917Z,10.07
2022-12-08T03:25:25.988Z,10.53
2022-12-08T03:27:53.864Z,10.33
2022-12-08T03:30:20.925Z,10.63
2022-12-08T03:33:04.316Z,10.83
2022-12-08T03:35:34.585Z,10.17
2022-12-08T03:38:10.829Z,10.00
2022-12-08T03:40:38.971Z,10.53
2022-12-08T03:43:06.337Z,10.70
2022-12-08T03:45:34.563Z,9.20
2022-12-08T03:48:01.449Z,10.77
2022-12-08T03:50:28.522Z,10.50
2022-12-08T03:52:55.325Z,10.87
2022-12-08T03:55:22.042Z,10.20
2022-12-08T03:57:49.633Z,9.57
2022-12-08T04:00:17.077Z,10.73
2022-12-08T04:02:44.095Z,10.30
2022-12-08T04:05:11.014Z,9.20
2022-12-08T04:07:37.907Z,10.50
2022-12-08T04:10:06.184Z,10.23
2022-12-08T04:12:33.166Z,9.87
2022-12-08T04:14:59.850Z,9.23
2022-12-08T04:17:26.618Z,9.53
2022-12-08T04:19:53.322Z,10.17
2022-12-08T04:22:21.366Z,9.57
2022-12-08T04:24:48.244Z,9.23
2022-12-08T04:27:14.968Z,8.80
2022-12-08T04:29:41.666Z,9.13
2022-12-08T04:32:08.285Z,9.50
2022-12-08T04:34:35.851Z,9.00
2022-12-08T04:37:02.579Z,9.73
2022-12-08T04:39:29.639Z,9.43
2022-12-08T04:41:56.379Z,9.60
2022-12-08T04:44:23.130Z,8.70
2022-12-08T04:46:50.067Z,9.87
2022-12-08T04:49:16.789Z,9.37
2022-12-08T04:51:43.533Z,9.13
2022-12-08T04:54:10.213Z,10.00
2022-12-08T04:56:37.090Z,9.87
2022-12-08T04:59:05.115Z,9.17
2022-12-08T05:01:32.173Z,9.03
2022-12-08T05:03:59.080Z,9.00
2022-12-08T05:06:25.945Z,9.50
2022-12-08T05:08:52.728Z,8.57
2022-12-08T05:11:20.243Z,9.23
2022-12-08T05:13:47.560Z,8.43
2022-12-08T05:16:15.967Z,8.60
2022-12-08T05:18:43.423Z,9.17
2022-12-08T05:21:10.578Z,9.00
2022-12-08T05:23:37.319Z,8.57
2022-12-08T05:26:05.540Z,7.83
2022-12-08T05:28:42.618Z,8.30
2022-12-08T05:31:11.753Z,8.40
2022-12-08T05:33:38.628Z,7.73
2022-12-08T05:36:06.908Z,8.50
2022-12-08T05:38:34.011Z,9.00
2022-12-08T05:41:00.717Z,8.60
2022-12-08T05:43:27.535Z,8.97
2022-12-08T05:45:54.341Z,8.87
2022-12-08T05:48:21.921Z,8.20
2022-12-08T05:50:50.748Z,8.53
2022-12-08T05:53:20.449Z,7.97
2022-12-08T05:55:47.804Z,8.43
2022-12-08T05:58:20.921Z,8.73
2022-12-08T06:00:48.886Z,8.07
2022-12-08T06:03:17.994Z,8.57
2022-12-08T06:05:46.306Z,8.03
2022-12-08T06:08:13.646Z,8.70
2022-12-08T06:10:42.428Z,7.53
2022-12-08T06:13:09.174Z,7.50
2022-12-08T06:15:38.638Z,7.77
2022-12-08T06:18:07.153Z,7.23
2022-12-08T06:20:36.073Z,7.20
2022-12-08T06:23:03.870Z,7.70
2022-12-08T06:25:30.796Z,7.87
2022-12-08T06:27:57.533Z,6.77
2022-12-08T06:30:24.232Z,7.17
2022-12-08T06:32:51.076Z,7.03
2022-12-08T06:35:17.875Z,6.53
2022-12-08T06:37:44.565Z,7.90
2022-12-08T06:40:11.897Z,7.33
2022-12-08T06:42:44.233Z,7.73
2022-12-08T06:45:13.002Z,6.80
2022-12-08T06:47:40.148Z,7.87
2022-12-08T06:50:10.412Z,8.20
2022-12-08T06:52:44.067Z,6.70
2022-12-08T06:55:35.284Z,6.97
2022-12-08T06:58:00.940Z,7.00
2022-12-08T07:00:27.607Z,6.60
2022-12-08T07:02:54.460Z,7.60
2022-12-08T07:05:21.286Z,7.30
2022-12-08T07:07:48.028Z,6.60
2022-12-08T07:10:14.760Z,6.77
2022-12-08T07:12:41.425Z,6.93
2022-12-08T07:15:08.781Z,6.97
2022-12-08T07:17:36.186Z,5.47
2022-12-08T07:20:03.846Z,6.33
2022-12-08T07:22:30.906Z,5.90
2022-12-08T07:24:57.616Z,5.93
2022-12-08T07:27:24.418Z,5.37
2022-12-08T07:29:51.637Z,5.33
2022-12-08T07:32:18.378Z,5.90
2022-12-08T07:34:47.277Z,5.57
2022-12-08T07:37:14.294Z,6.37
2022-12-08T07:39:41.475Z,5.90
2022-12-08T07:42:08.578Z,5.50
2022-12-08T07:44:38.132Z,6.50
2022-12-08T07:47:05.117Z,6.07
2022-12-08T07:49:31.886Z,5.80
2022-12-08T07:51:58.705Z,5.37
2022-12-08T07:54:25.351Z,5.27
2022-12-08T07:56:52.882Z,5.57
2022-12-08T07:59:21.738Z,5.90
2022-12-08T08:02:05.076Z,5.77
2022-12-08T08:04:37.103Z,6.03
2022-12-08T08:07:03.871Z,5.43
2022-12-08T08:09:30.607Z,5.37
2022-12-08T08:12:28.899Z,5.50
2022-12-08T08:14:44.337Z,6.20
2022-12-08T08:17:11.741Z,6.00
2022-12-08T08:19:38.663Z,6.63
2022-12-08T08:22:05.406Z,6.87
2022-12-08T08:24:32.160Z,6.70
2022-12-08T08:26:58.961Z,7.47
2022-12-08T08:29:25.927Z,7.17
2022-12-08T08:31:53.639Z,6.30
2022-12-08T08:34:20.393Z,5.90
2022-12-08T08:36:47.293Z,5.07
2022-12-08T08:39:14.432Z,4.60
2022-12-08T08:41:41.690Z,4.07
2022-12-08T08:44:08.843Z,4.20
2022-12-08T08:46:35.681Z,4.20
2022-12-08T08:49:02.637Z,3.90
2022-12-08T08:51:29.368Z,4.03
2022-12-08T08:53:57.304Z,3.80
2022-12-08T08:56:24.326Z,3.50
2022-12-08T08:58:53.587Z,3.93
2022-12-08T09:01:24.781Z,3.80
2022-12-08T09:03:52.705Z,4.07
2022-12-08T09:06:20.482Z,3.80
2022-12-08T09:08:48.186Z,4.17
2022-12-08T09:11:15.410Z,3.90
2022-12-08T09:13:42.411Z,4.27
2022-12-08T09:16:11.105Z,4.00
2022-12-08T09:18:39.024Z,4.53
2022-12-08T09:21:09.013Z,4.40
2022-12-08T09:23:38.102Z,3.80
2022-12-08T09:26:05.743Z,4.30
2022-12-08T09:28:33.033Z,4.80
2022-12-08T09:31:00.302Z,4.10
2022-12-08T09:33:27.784Z,3.93
2022-12-08T09:35:54.698Z,4.80
2022-12-08T09:38:21.832Z,4.57
2022-12-08T09:40:53.381Z,4.37
2022-12-08T09:44:00.592Z,4.43
2022-12-08T09:46:30.656Z,4.30
2022-12-08T09:49:00.843Z,5.00
2022-12-08T09:51:33.925Z,5.27
2022-12-08T09:54:09.410Z,5.67
2022-12-08T09:56:38.553Z,5.00
2022-12-08T09:59:24.590Z,4.90
2022-12-08T10:01:52.067Z,4.60
2022-12-08T10:04:32.027Z,5.17
2022-12-08T10:07:21.020Z,5.10
2022-12-08T10:10:25.396Z,5.97
2022-12-08T10:13:11.685Z,6.03
2022-12-08T10:16:04.084Z,6.63
2022-12-08T10:18:33.059Z,7.17
2022-12-08T10:21:18.927Z,6.80
2022-12-08T10:23:52.288Z,6.40
2022-12-08T10:26:23.375Z,6.50
2022-12-08T10:28:51.122Z,6.93
2022-12-08T10:31:25.131Z,6.87
2022-12-08T10:34:13.660Z,6.37
2022-12-08T10:36:47.990Z,4.40
2022-12-08T10:39:33.259Z,5.57
2022-12-08T10:42:15.607Z,6.60
2022-12-08T10:44:57.340Z,7.07
2022-12-08T10:47:27.101Z,6.30
2022-12-08T10:50:21.227Z,7.17
2022-12-08T10:53:01.020Z,6.50
2022-12-08T10:55:29.725Z,5.50
2022-12-08T10:57:56.407Z,4.13
2022-12-08T11:00:28.476Z,4.80
2022-12-08T11:03:01.395Z,4.83
2022-12-08T11:05:34.952Z,4.80
2022-12-08T11:08:02.896Z,4.17
2022-12-08T11:10:44.831Z,2.70
2022-12-08T11:13:21.550Z,2.53
2022-12-08T11:15:49.468Z,2.40
2022-12-08T11:18:28.653Z,2.10
2022-12-08T11:20:59.818Z,2.03
2022-12-08T11:23:28.395Z,2.20
2022-12-08T11:26:02.837Z,2.50
2022-12-08T11:28:29.935Z,3.10
2022-12-08T11:31:07.849Z,3.37
2022-12-08T11:33:34.803Z,3.27
2022-12-08T11:36:12.915Z,3.17
2022-12-08T11:38:46.434Z,2.90
2022-12-08T11:41:17.970Z,2.37
2022-12-08T11:43:44.917Z,3.03
2022-12-08T11:46:25.341Z,2.60
2022-12-08T11:49:06.786Z,2.43
2022-12-08T11:51:38.185Z,3.10
2022-12-08T11:54:34.266Z,3.23
2022-12-08T11:57:03.153Z,2.80
2022-12-08T11:59:34.666Z,3.23
2022-12-08T12:02:04.769Z,3.53
2022-12-08T12:04:40.703Z,3.37
2022-12-08T12:07:26.644Z,2.70
2022-12-08T12:10:16.885Z,2.47
2022-12-08T12:13:05.401Z,3.10
2022-12-08T12:15:41.262Z,6.30
2022-12-08T12:18:30.341Z,4.47
2022-12-08T12:20:57.055Z,5.83
2022-12-08T12:23:38.481Z,4.00
2022-12-08T12:26:08.500Z,4.40
2022-12-08T12:28:58.075Z,3.80
2022-12-08T12:31:41.625Z,3.90
2022-12-08T12:34:14.708Z,4.60
2022-12-08T12:37:19.129Z,4.20
2022-12-08T12:39:52.402Z,4.80
2022-12-08T12:42:49.210Z,4.10
2022-12-08T12:45:22.231Z,5.13
2022-12-08T12:48:10.114Z,5.00
2022-12-08T12:50:46.942Z,4.47
2022-12-08T12:53:16.724Z,4.43
2022-12-08T12:55:46.625Z,4.50
2022-12-08T12:58:28.794Z,4.20
2022-12-08T13:01:08.799Z,3.70
2022-12-08T13:03:42.367Z,4.00
2022-12-08T13:06:15.094Z,3.70
2022-12-08T13:08:53.929Z,3.50
2022-12-08T13:11:26.152Z,3.30
2022-12-08T13:13:58.771Z,3.40
2022-12-08T13:16:28.819Z,3.83
2022-12-08T13:19:05.829Z,3.13
2022-12-08T13:21:38.702Z,2.47
2022-12-08T13:24:17.921Z,1.80
2022-12-08T13:27:03.767Z,2.20
2022-12-08T13:29:37.717Z,2.70
2022-12-08T13:32:04.472Z,2.90
2022-12-08T13:35:00.289Z,2.90
2022-12-08T13:37:53.972Z,3.50
2022-12-08T13:40:30.423Z,2.87
2022-12-08T13:43:28.245Z,4.40
2022-12-08T13:46:57.607Z,10.17
2022-12-08T13:50:31.285Z,4.13
2022-12-08T13:57:30.805Z,1.90
2022-12-08T14:00:14.828Z,1.30
2022-12-08T14:02:47.997Z,1.27
2022-12-08T14:05:34.865Z,1.73
2022-12-08T14:08:30.105Z,2.50
2022-12-08T14:11:05.268Z,2.43
2022-12-08T14:13:33.968Z,3.00
2022-12-08T14:16:00.946Z,2.80
2022-12-08T14:18:30.965Z,2.73
2022-12-08T14:21:21.369Z,3.40
2022-12-08T14:23:48.776Z,3.40
2022-12-08T14:26:15.947Z,4.10
2022-12-08T14:28:45.263Z,4.30
2022-12-08T14:31:14.762Z,3.43
2022-12-08T14:33:43.200Z,4.37
2022-12-08T14:36:14.602Z,3.60
2022-12-08T14:38:42.971Z,3.50
2022-12-08T14:41:12.552Z,3.90
2022-12-08T14:43:41.394Z,2.80
2022-12-08T14:46:22.709Z,3.50
2022-12-08T14:48:49.901Z,3.73
2022-12-08T14:51:19.323Z,3.57
2022-12-08T14:53:47.829Z,4.00
2022-12-08T14:56:23.235Z,3.63
2022-12-08T14:59:03.192Z,3.53
2022-12-08T15:01:31.100Z,3.17
2022-12-08T15:04:07.037Z,3.30
2022-12-08T15:06:34.042Z,4.00
2022-12-08T15:09:17.130Z,3.43
2022-12-08T15:11:44.040Z,4.00
2022-12-08T15:14:36.109Z,3.67
2022-12-08T15:17:03.774Z,3.10
2022-12-08T15:19:33.332Z,3.90
2022-12-08T15:22:19.673Z,4.17
2022-12-08T15:24:46.481Z,3.93
2022-12-08T15:27:21.704Z,4.30
2022-12-08T15:29:48.902Z,4.33
2022-12-08T15:32:23.960Z,4.30
2022-12-08T15:34:50.973Z,4.40
2022-12-08T15:37:22.597Z,4.40
2022-12-08T15:39:49.837Z,4.20
2022-12-08T15:42:16.784Z,4.30
2022-12-08T15:44:43.972Z,4.50
2022-12-08T15:47:16.767Z,4.50
2022-12-08T15:49:44.182Z,4.27
2022-12-08T15:52:28.985Z,4.27
2022-12-08T15:54:55.930Z,4.63
2022-12-08T15:58:10.934Z,3.70
2022-12-08T16:00:51.324Z,4.30
2022-12-08T16:07:12.470Z,4.23
2022-12-08T16:09:17.605Z,4.50
2022-12-08T16:12:07.267Z,4.40
2022-12-08T16:17:21.797Z,4.23
2022-12-08T16:19:49.582Z,4.87
2022-12-08T16:25:21.704Z,4.77
2022-12-08T16:28:12.301Z,4.27
2022-12-08T16:30:40.162Z,5.27
2022-12-08T16:33:07.063Z,4.70
2022-12-08T16:35:34.101Z,4.80
2022-12-08T16:38:01.109Z,5.03
2022-12-08T16:40:29.151Z,5.37
2022-12-08T16:42:55.898Z,5.43
2022-12-08T16:45:25.470Z,4.80
2022-12-08T16:48:00.646Z,4.93
2022-12-08T16:50:30.934Z,5.57
2022-12-08T16:53:06.979Z,5.37
2022-12-08T16:55:34.497Z,5.70
2022-12-08T16:58:02.709Z,5.33
2022-12-08T17:00:30.990Z,4.87
2022-12-08T17:02:59.102Z,5.60
2022-12-08T17:05:26.840Z,5.83
2022-12-08T17:07:54.903Z,5.60
2022-12-08T17:10:25.519Z,5.07
2022-12-08T17:12:53.357Z,4.83
2022-12-08T17:15:23.033Z,3.70
2022-12-08T17:17:50.402Z,3.67
2022-12-08T17:20:23.005Z,3.63
2022-12-08T17:22:50.483Z,4.73
2022-12-08T17:25:17.675Z,4.97
2022-12-08T17:27:44.447Z,5.60
2022-12-08T17:30:15.555Z,5.37
2022-12-08T17:32:43.945Z,6.07
2022-12-08T17:35:11.787Z,5.70
2022-12-08T17:37:40.976Z,5.20
2022-12-08T17:40:08.616Z,5.77
2022-12-08T17:42:35.514Z,5.60
2022-12-08T17:45:03.172Z,4.63
2022-12-08T17:47:30.074Z,4.13
2022-12-08T17:49:57.365Z,4.37
2022-12-08T17:52:24.940Z,4.57
2022-12-08T17:54:51.726Z,5.00
2022-12-08T17:57:18.472Z,5.10
2022-12-08T17:59:45.286Z,4.70
2022-12-08T18:02:12.578Z,4.57
2022-12-08T18:04:40.047Z,5.07
2022-12-08T18:07:06.783Z,5.53
2022-12-08T18:09:34.130Z,5.30
2022-12-08T18:12:00.888Z,4.83
2022-12-08T18:14:28.541Z,5.37
2022-12-08T18:16:55.455Z,5.60
2022-12-08T18:19:22.672Z,6.00
2022-12-08T18:21:49.490Z,5.47
2022-12-08T18:24:19.603Z,5.20
2022-12-08T18:26:47.153Z,5.33
2022-12-08T18:29:14.760Z,6.00
2022-12-08T18:31:41.519Z,6.17
2022-12-08T18:34:08.365Z,6.17
2022-12-08T18:36:35.171Z,7.53
2022-12-08T18:39:07.192Z,6.83
2022-12-08T18:41:37.136Z,6.20
2022-12-08T18:44:03.989Z,5.97
2022-12-08T18:46:30.792Z,5.83
2022-12-08T18:48:58.127Z,5.73
2022-12-08T18:51:25.434Z,6.30
2022-12-08T18:53:53.142Z,7.63
2022-12-08T18:56:32.040Z,8.00
2022-12-08T18:59:03.835Z,6.93
2022-12-08T19:01:36.754Z,6.80
2022-12-08T19:06:54.208Z,6.87
2022-12-08T19:09:21.426Z,7.20
2022-12-08T19:11:48.775Z,6.60
2022-12-08T19:14:15.753Z,6.67
2022-12-08T19:16:42.663Z,7.53
2022-12-08T19:19:09.889Z,6.97
2022-12-08T19:21:44.548Z,6.77
2022-12-08T19:24:13.313Z,7.87
2022-12-08T19:26:40.783Z,8.30
2022-12-08T19:29:07.631Z,7.53
2022-12-08T19:31:35.143Z,7.40
2022-12-08T19:34:01.905Z,9.37
2022-12-08T19:36:35.473Z,7.53
2022-12-08T19:39:23.583Z,6.83
2022-12-08T19:42:09.410Z,8.23
2022-12-08T19:44:54.461Z,8.20
2022-12-08T19:47:24.456Z,7.80
2022-12-08T19:49:53.944Z,7.07
2022-12-08T19:52:21.093Z,7.17
2022-12-08T19:54:47.942Z,8.13
2022-12-08T19:57:16.310Z,7.63
2022-12-08T19:59:43.178Z,7.27
2022-12-08T20:02:11.357Z,8.17
2022-12-08T20:04:38.456Z,7.67
2022-12-08T20:07:05.719Z,7.53
2022-12-08T20:09:33.218Z,7.30
2022-12-08T20:12:02.004Z,7.77
2022-12-08T20:14:29.134Z,8.13
2022-12-08T20:16:56.555Z,7.53
2022-12-08T20:19:23.357Z,7.73
2022-12-08T20:21:50.274Z,7.20
2022-12-08T20:24:17.443Z,7.10
2022-12-08T20:26:45.159Z,7.10
2022-12-08T20:29:17.160Z,7.67
2022-12-08T20:31:45.619Z,8.00
2022-12-08T20:34:17.740Z,6.97
2022-12-08T20:36:46.768Z,8.70
2022-12-08T20:39:16.615Z,7.57
2022-12-08T20:41:45.628Z,7.67
2022-12-08T20:44:12.872Z,7.53
2022-12-08T20:46:41.781Z,7.63
2022-12-08T20:49:10.570Z,8.20
2022-12-08T20:51:37.301Z,8.73
2022-12-08T20:54:09.886Z,10.40
2022-12-08T20:56:36.795Z,19.23
2022-12-08T20:59:03.910Z,35.33
2022-12-08T21:01:32.147Z,33.47
2022-12-08T21:03:59.223Z,32.80
2022-12-08T21:06:28.209Z,29.27
2022-12-08T21:08:55.174Z,22.47
2022-12-08T21:11:22.200Z,15.60
2022-12-08T21:13:49.385Z,10.57
2022-12-08T21:16:17.398Z,9.17
2022-12-08T21:18:44.353Z,9.23
2022-12-08T21:21:14.316Z,9.50
2022-12-08T21:23:43.180Z,8.13
2022-12-08T21:26:19.083Z,7.83
2022-12-08T21:28:47.902Z,8.07
2022-12-08T21:31:19.398Z,7.43
2022-12-08T21:33:47.698Z,8.67
2022-12-08T21:36:17.753Z,7.63
2022-12-08T21:38:46.890Z,7.37
2022-12-08T21:41:37.961Z,7.93
2022-12-08T21:44:06.346Z,7.30
2022-12-08T21:46:33.287Z,7.77
2022-12-08T21:49:01.220Z,8.00
2022-12-08T21:51:28.651Z,8.33
2022-12-08T21:53:55.383Z,8.13
2022-12-08T21:56:22.813Z,7.97
2022-12-08T21:58:50.076Z,8.67
2022-12-08T22:01:17.612Z,8.20
2022-12-08T22:03:44.665Z,7.73
2022-12-08T22:06:13.841Z,7.90
2022-12-08T22:08:41.825Z,8.80
2022-12-08T22:11:11.381Z,8.63
2022-12-08T22:13:39.777Z,8.40
2022-12-08T22:16:09.462Z,8.90
2022-12-08T22:18:37.188Z,7.27
2022-12-08T22:21:17.136Z,7.83
2022-12-08T22:23:44.505Z,8.13
2022-12-08T22:26:12.643Z,7.37
2022-12-08T22:28:41.665Z,8.33
2022-12-08T22:31:15.081Z,6.97
2022-12-08T22:33:42.850Z,7.67
2022-12-08T22:36:19.784Z,9.23
2022-12-08T22:38:48.324Z,8.13
2022-12-08T22:41:17.245Z,8.13
2022-12-08T22:43:45.314Z,8.40
2022-12-08T22:46:18.142Z,8.93
2022-12-08T22:48:45.640Z,8.10
2022-12-08T22:51:14.244Z,7.60
2022-12-08T22:53:41.822Z,8.23
2022-12-08T22:56:11.791Z,7.97
2022-12-08T22:58:39.929Z,8.07
2022-12-08T23:01:08.465Z,8.33
2022-12-08T23:03:35.604Z,8.57
2022-12-08T23:06:13.034Z,8.80
2022-12-08T23:08:40.708Z,7.37
2022-12-08T23:11:07.854Z,9.07
2022-12-08T23:13:34.653Z,9.13
2022-12-08T23:16:02.737Z,9.73
2022-12-08T23:18:29.503Z,9.17
2022-12-08T23:20:56.264Z,10.47
2022-12-08T23:23:23.169Z,11.97
2022-12-08T23:25:49.965Z,13.83
2022-12-08T23:28:18.125Z,12.50
2022-12-08T23:30:44.964Z,11.93
2022-12-08T23:33:12.083Z,12.07
2022-12-08T23:35:39.823Z,11.03
2022-12-08T23:38:07.102Z,9.60
2022-12-08T23:40:34.266Z,8.00
2022-12-08T23:43:01.225Z,7.93
2022-12-08T23:45:29.747Z,7.87
2022-12-08T23:47:56.604Z,7.47
2022-12-08T23:50:23.999Z,7.93
2022-12-08T23:52:50.934Z,7.27
2022-12-08T23:55:18.909Z,7.50
2022-12-08T23:57:45.589Z,7.50
